sensor_id;sensor_type;location;lat;lon;timestamp;temperature;humidity
5226;DHT22;2632;51.666;7.146;2024-03-17T00:01:03;6.30;92.10
5226;DHT22;2632;51.666;7.146;2024-03-17T00:03:29;6.20;91.50
5226;DHT22;2632;51.666;7.146;2024-03-17T00:05:59;6.00;91.90
5226;DHT22;2632;51.666;7.146;2024-03-17T00:08:26;6.20;92.10
5226;DHT22;2632;51.666;7.146;2024-03-17T00:10:55;5.90;92.00
5226;DHT22;2632;51.666;7.146;2024-03-17T00:13:21;5.70;92.30
5226;DHT22;2632;51.666;7.146;2024-03-17T00:15:48;5.60;92.40
5226;DHT22;2632;51.666;7.146;2024-03-17T00:18:14;5.60;92.50
5226;DHT22;2632;51.666;7.146;2024-03-17T00:20:40;5.70;92.50
5226;DHT22;2632;51.666;7.146;2024-03-17T00:23:06;5.70;92.80
5226;DHT22;2632;51.666;7.146;2024-03-17T00:25:35;6.30;92.60
5226;DHT22;2632;51.666;7.146;2024-03-17T00:28:01;6.00;92.40
5226;DHT22;2632;51.666;7.146;2024-03-17T00:30:27;6.20;92.40
5226;DHT22;2632;51.666;7.146;2024-03-17T00:32:53;6.00;91.50
5226;DHT22;2632;51.666;7.146;2024-03-17T00:35:19;5.80;91.80
5226;DHT22;2632;51.666;7.146;2024-03-17T00:37:48;5.60;92.30
5226;DHT22;2632;51.666;7.146;2024-03-17T00:40:15;5.70;92.50
5226;DHT22;2632;51.666;7.146;2024-03-17T00:42:44;5.30;92.30
5226;DHT22;2632;51.666;7.146;2024-03-17T00:45:11;5.30;92.50
5226;DHT22;2632;51.666;7.146;2024-03-17T00:47:37;5.30;92.70
5226;DHT22;2632;51.666;7.146;2024-03-17T00:50:03;5.50;92.50
5226;DHT22;2632;51.666;7.146;2024-03-17T00:52:34;5.40;92.20
5226;DHT22;2632;51.666;7.146;2024-03-17T00:54:59;5.20;92.60
5226;DHT22;2632;51.666;7.146;2024-03-17T00:57:25;5.10;92.60
5226;DHT22;2632;51.666;7.146;2024-03-17T00:59:51;5.10;92.80
5226;DHT22;2632;51.666;7.146;2024-03-17T01:02:18;5.10;93.10
5226;DHT22;2632;51.666;7.146;2024-03-17T01:04:45;5.20;92.90
5226;DHT22;2632;51.666;7.146;2024-03-17T01:07:11;5.40;93.30
5226;DHT22;2632;51.666;7.146;2024-03-17T01:09:38;5.50;92.30
5226;DHT22;2632;51.666;7.146;2024-03-17T01:12:04;5.60;92.40
5226;DHT22;2632;51.666;7.146;2024-03-17T01:14:31;5.50;92.20
5226;DHT22;2632;51.666;7.146;2024-03-17T01:16:59;5.40;92.10
5226;DHT22;2632;51.666;7.146;2024-03-17T01:19:26;5.30;92.70
5226;DHT22;2632;51.666;7.146;2024-03-17T01:21:52;5.40;92.40
5226;DHT22;2632;51.666;7.146;2024-03-17T01:24:18;5.30;92.10
5226;DHT22;2632;51.666;7.146;2024-03-17T01:26:44;5.30;92.20
5226;DHT22;2632;51.666;7.146;2024-03-17T01:29:10;5.20;92.70
5226;DHT22;2632;51.666;7.146;2024-03-17T01:31:36;5.50;92.60
5226;DHT22;2632;51.666;7.146;2024-03-17T01:34:02;5.20;92.40
5226;DHT22;2632;51.666;7.146;2024-03-17T01:36:27;5.00;92.40
5226;DHT22;2632;51.666;7.146;2024-03-17T01:38:54;5.20;93.50
5226;DHT22;2632;51.666;7.146;2024-03-17T01:41:20;5.20;92.20
5226;DHT22;2632;51.666;7.146;2024-03-17T01:43:46;5.30;92.20
5226;DHT22;2632;51.666;7.146;2024-03-17T01:46:14;5.30;92.10
5226;DHT22;2632;51.666;7.146;2024-03-17T01:48:40;5.10;92.30
5226;DHT22;2632;51.666;7.146;2024-03-17T01:51:08;5.10;92.20
5226;DHT22;2632;51.666;7.146;2024-03-17T01:53:37;4.90;92.30
5226;DHT22;2632;51.666;7.146;2024-03-17T01:56:03;4.80;92.80
5226;DHT22;2632;51.666;7.146;2024-03-17T01:58:33;4.80;93.40
5226;DHT22;2632;51.666;7.146;2024-03-17T02:00:58;4.90;92.60
5226;DHT22;2632;51.666;7.146;2024-03-17T02:03:24;4.70;92.40
5226;DHT22;2632;51.666;7.146;2024-03-17T02:05:50;4.50;92.90
5226;DHT22;2632;51.666;7.146;2024-03-17T02:08:16;4.70;93.30
5226;DHT22;2632;51.666;7.146;2024-03-17T02:10:41;4.50;92.90
5226;DHT22;2632;51.666;7.146;2024-03-17T02:13:07;4.50;92.80
5226;DHT22;2632;51.666;7.146;2024-03-17T02:15:33;4.40;93.10
5226;DHT22;2632;51.666;7.146;2024-03-17T02:17:59;4.50;93.00
5226;DHT22;2632;51.666;7.146;2024-03-17T02:20:25;4.40;92.90
5226;DHT22;2632;51.666;7.146;2024-03-17T02:23:11;5.30;93.50
5226;DHT22;2632;51.666;7.146;2024-03-17T02:25:37;4.60;92.60
5226;DHT22;2632;51.666;7.146;2024-03-17T02:28:03;4.60;93.10
5226;DHT22;2632;51.666;7.146;2024-03-17T02:30:30;4.70;92.80
5226;DHT22;2632;51.666;7.146;2024-03-17T02:32:56;4.60;92.20
5226;DHT22;2632;51.666;7.146;2024-03-17T02:35:23;4.40;92.60
5226;DHT22;2632;51.666;7.146;2024-03-17T02:37:48;4.20;93.00
5226;DHT22;2632;51.666;7.146;2024-03-17T02:40:14;4.20;93.30
5226;DHT22;2632;51.666;7.146;2024-03-17T02:42:42;4.30;93.40
5226;DHT22;2632;51.666;7.146;2024-03-17T02:45:08;4.60;93.50
5226;DHT22;2632;51.666;7.146;2024-03-17T02:47:34;4.70;93.00
5226;DHT22;2632;51.666;7.146;2024-03-17T02:50:00;4.40;93.20
5226;DHT22;2632;51.666;7.146;2024-03-17T02:52:26;4.80;93.10
5226;DHT22;2632;51.666;7.146;2024-03-17T02:54:52;4.50;93.10
5226;DHT22;2632;51.666;7.146;2024-03-17T02:57:21;4.70;92.90
5226;DHT22;2632;51.666;7.146;2024-03-17T02:59:49;4.50;92.40
5226;DHT22;2632;51.666;7.146;2024-03-17T03:02:14;4.30;92.70
5226;DHT22;2632;51.666;7.146;2024-03-17T03:04:40;4.20;92.90
5226;DHT22;2632;51.666;7.146;2024-03-17T03:07:06;4.30;92.80
5226;DHT22;2632;51.666;7.146;2024-03-17T03:09:32;4.20;92.80
5226;DHT22;2632;51.666;7.146;2024-03-17T03:11:58;4.50;93.20
5226;DHT22;2632;51.666;7.146;2024-03-17T03:14:25;4.30;92.90
5226;DHT22;2632;51.666;7.146;2024-03-17T03:16:51;4.40;93.00
5226;DHT22;2632;51.666;7.146;2024-03-17T03:19:16;4.80;92.90
5226;DHT22;2632;51.666;7.146;2024-03-17T03:21:42;4.50;92.40
5226;DHT22;2632;51.666;7.146;2024-03-17T03:24:08;4.50;92.50
5226;DHT22;2632;51.666;7.146;2024-03-17T03:26:34;4.30;92.40
5226;DHT22;2632;51.666;7.146;2024-03-17T03:29:00;4.00;92.90
5226;DHT22;2632;51.666;7.146;2024-03-17T03:31:26;3.90;93.40
5226;DHT22;2632;51.666;7.146;2024-03-17T03:33:52;4.60;93.40
5226;DHT22;2632;51.666;7.146;2024-03-17T03:36:17;3.90;93.50
5226;DHT22;2632;51.666;7.146;2024-03-17T03:38:43;4.20;93.40
5226;DHT22;2632;51.666;7.146;2024-03-17T03:41:10;4.10;92.90
5226;DHT22;2632;51.666;7.146;2024-03-17T03:43:36;4.20;93.00
5226;DHT22;2632;51.666;7.146;2024-03-17T03:46:02;4.20;92.90
5226;DHT22;2632;51.666;7.146;2024-03-17T03:48:29;4.10;92.90
5226;DHT22;2632;51.666;7.146;2024-03-17T03:50:54;4.00;93.10
5226;DHT22;2632;51.666;7.146;2024-03-17T03:53:20;4.00;93.20
5226;DHT22;2632;51.666;7.146;2024-03-17T03:55:46;3.90;93.30
5226;DHT22;2632;51.666;7.146;2024-03-17T03:58:12;3.90;93.50
5226;DHT22;2632;51.666;7.146;2024-03-17T04:00:41;3.90;93.50
5226;DHT22;2632;51.666;7.146;2024-03-17T04:03:07;3.90;93.40
5226;DHT22;2632;51.666;7.146;2024-03-17T04:05:33;3.90;93.30
5226;DHT22;2632;51.666;7.146;2024-03-17T04:08:00;3.90;93.50
5226;DHT22;2632;51.666;7.146;2024-03-17T04:10:26;4.10;93.60
5226;DHT22;2632;51.666;7.146;2024-03-17T04:12:52;4.10;93.00
5226;DHT22;2632;51.666;7.146;2024-03-17T04:15:19;3.90;93.10
5226;DHT22;2632;51.666;7.146;2024-03-17T04:17:45;4.00;93.30
5226;DHT22;2632;51.666;7.146;2024-03-17T04:20:11;4.00;93.00
5226;DHT22;2632;51.666;7.146;2024-03-17T04:22:42;3.90;93.10
5226;DHT22;2632;51.666;7.146;2024-03-17T04:25:11;3.80;93.30
5226;DHT22;2632;51.666;7.146;2024-03-17T04:27:38;3.70;93.50
5226;DHT22;2632;51.666;7.146;2024-03-17T04:30:06;3.60;93.80
5226;DHT22;2632;51.666;7.146;2024-03-17T04:32:32;3.70;93.50
5226;DHT22;2632;51.666;7.146;2024-03-17T04:34:59;3.80;93.70
5226;DHT22;2632;51.666;7.146;2024-03-17T04:37:25;4.00;93.60
5226;DHT22;2632;51.666;7.146;2024-03-17T04:39:51;3.90;93.00
5226;DHT22;2632;51.666;7.146;2024-03-17T04:42:17;3.80;93.20
5226;DHT22;2632;51.666;7.146;2024-03-17T04:44:46;3.90;93.10
5226;DHT22;2632;51.666;7.146;2024-03-17T04:47:12;4.30;93.30
5226;DHT22;2632;51.666;7.146;2024-03-17T04:52:04;3.70;93.40
5226;DHT22;2632;51.666;7.146;2024-03-17T04:54:31;3.70;93.30
5226;DHT22;2632;51.666;7.146;2024-03-17T04:56:57;4.00;93.50
5226;DHT22;2632;51.666;7.146;2024-03-17T04:59:23;3.70;93.80
5226;DHT22;2632;51.666;7.146;2024-03-17T05:01:49;4.00;93.40
5226;DHT22;2632;51.666;7.146;2024-03-17T05:04:15;4.10;92.90
5226;DHT22;2632;51.666;7.146;2024-03-17T05:06:41;4.20;93.10
5226;DHT22;2632;51.666;7.146;2024-03-17T05:09:12;3.90;92.90
5226;DHT22;2632;51.666;7.146;2024-03-17T05:11:39;3.80;93.20
5226;DHT22;2632;51.666;7.146;2024-03-17T05:14:05;3.70;93.60
5226;DHT22;2632;51.666;7.146;2024-03-17T05:16:31;3.70;93.60
5226;DHT22;2632;51.666;7.146;2024-03-17T05:18:57;3.70;93.60
5226;DHT22;2632;51.666;7.146;2024-03-17T05:21:22;3.70;93.70
5226;DHT22;2632;51.666;7.146;2024-03-17T05:23:49;3.70;93.60
5226;DHT22;2632;51.666;7.146;2024-03-17T05:26:15;3.70;93.50
5226;DHT22;2632;51.666;7.146;2024-03-17T05:28:41;3.70;93.50
5226;DHT22;2632;51.666;7.146;2024-03-17T05:31:07;3.60;93.80
5226;DHT22;2632;51.666;7.146;2024-03-17T05:33:32;3.70;93.80
5226;DHT22;2632;51.666;7.146;2024-03-17T05:36:00;4.00;93.70
5226;DHT22;2632;51.666;7.146;2024-03-17T05:38:27;3.60;93.60
5226;DHT22;2632;51.666;7.146;2024-03-17T05:40:57;3.90;93.70
5226;DHT22;2632;51.666;7.146;2024-03-17T05:43:26;4.00;93.40
5226;DHT22;2632;51.666;7.146;2024-03-17T05:45:54;4.20;93.30
5226;DHT22;2632;51.666;7.146;2024-03-17T05:48:20;4.60;93.40
5226;DHT22;2632;51.666;7.146;2024-03-17T05:50:46;4.00;93.30
5226;DHT22;2632;51.666;7.146;2024-03-17T05:53:12;4.30;93.10
5226;DHT22;2632;51.666;7.146;2024-03-17T05:55:38;4.00;93.40
5226;DHT22;2632;51.666;7.146;2024-03-17T05:58:06;3.90;93.10
5226;DHT22;2632;51.666;7.146;2024-03-17T06:00:35;3.90;93.40
5226;DHT22;2632;51.666;7.146;2024-03-17T06:03:01;3.90;93.30
5226;DHT22;2632;51.666;7.146;2024-03-17T06:05:27;4.00;93.30
5226;DHT22;2632;51.666;7.146;2024-03-17T06:07:53;4.10;93.00
5226;DHT22;2632;51.666;7.146;2024-03-17T06:10:19;4.10;92.90
5226;DHT22;2632;51.666;7.146;2024-03-17T06:12:50;4.10;93.00
5226;DHT22;2632;51.666;7.146;2024-03-17T06:15:16;4.10;93.00
5226;DHT22;2632;51.666;7.146;2024-03-17T06:17:42;4.20;93.10
5226;DHT22;2632;51.666;7.146;2024-03-17T06:20:08;4.30;93.50
5226;DHT22;2632;51.666;7.146;2024-03-17T06:22:39;4.30;93.20
5226;DHT22;2632;51.666;7.146;2024-03-17T06:25:06;4.50;93.10
5226;DHT22;2632;51.666;7.146;2024-03-17T06:27:32;4.80;93.20
5226;DHT22;2632;51.666;7.146;2024-03-17T06:30:00;5.00;92.40
5226;DHT22;2632;51.666;7.146;2024-03-17T06:32:35;5.10;92.10
5226;DHT22;2632;51.666;7.146;2024-03-17T06:35:04;5.20;92.30
5226;DHT22;2632;51.666;7.146;2024-03-17T06:37:30;5.30;91.90
5226;DHT22;2632;51.666;7.146;2024-03-17T06:39:56;5.80;91.70
5226;DHT22;2632;51.666;7.146;2024-03-17T06:42:22;6.50;91.20
5226;DHT22;2632;51.666;7.146;2024-03-17T06:44:48;6.80;90.30
5226;DHT22;2632;51.666;7.146;2024-03-17T06:47:13;7.20;89.80
5226;DHT22;2632;51.666;7.146;2024-03-17T06:49:39;7.70;88.70
5226;DHT22;2632;51.666;7.146;2024-03-17T06:52:05;8.00;86.20
5226;DHT22;2632;51.666;7.146;2024-03-17T06:54:31;8.20;86.20
5226;DHT22;2632;51.666;7.146;2024-03-17T06:56:59;8.20;85.80
5226;DHT22;2632;51.666;7.146;2024-03-17T06:59:25;8.40;85.40
5226;DHT22;2632;51.666;7.146;2024-03-17T07:01:51;8.10;85.40
5226;DHT22;2632;51.666;7.146;2024-03-17T07:04:17;7.60;86.90
5226;DHT22;2632;51.666;7.146;2024-03-17T07:06:43;7.30;88.50
5226;DHT22;2632;51.666;7.146;2024-03-17T07:09:09;7.30;89.50
5226;DHT22;2632;51.666;7.146;2024-03-17T07:11:35;7.30;90.40
5226;DHT22;2632;51.666;7.146;2024-03-17T07:14:01;7.20;89.40
5226;DHT22;2632;51.666;7.146;2024-03-17T07:16:27;7.50;90.40
5226;DHT22;2632;51.666;7.146;2024-03-17T07:18:52;7.80;90.00
5226;DHT22;2632;51.666;7.146;2024-03-17T07:21:18;8.00;90.40
5226;DHT22;2632;51.666;7.146;2024-03-17T07:23:44;8.10;89.20
5226;DHT22;2632;51.666;7.146;2024-03-17T07:26:10;8.20;89.20
5226;DHT22;2632;51.666;7.146;2024-03-17T07:28:36;8.10;88.00
5226;DHT22;2632;51.666;7.146;2024-03-17T07:31:08;8.30;88.70
5226;DHT22;2632;51.666;7.146;2024-03-17T07:33:35;8.30;88.40
5226;DHT22;2632;51.666;7.146;2024-03-17T07:36:00;8.40;88.80
5226;DHT22;2632;51.666;7.146;2024-03-17T07:38:29;8.40;88.60
5226;DHT22;2632;51.666;7.146;2024-03-17T07:40:57;8.60;86.80
5226;DHT22;2632;51.666;7.146;2024-03-17T07:43:28;8.70;87.60
5226;DHT22;2632;51.666;7.146;2024-03-17T07:46:08;9.00;86.90
5226;DHT22;2632;51.666;7.146;2024-03-17T07:48:36;9.10;85.30
5226;DHT22;2632;51.666;7.146;2024-03-17T07:51:07;9.10;86.00
5226;DHT22;2632;51.666;7.146;2024-03-17T07:53:35;9.20;85.10
5226;DHT22;2632;51.666;7.146;2024-03-17T07:56:06;9.20;85.80
5226;DHT22;2632;51.666;7.146;2024-03-17T07:58:33;9.10;84.70
5226;DHT22;2632;51.666;7.146;2024-03-17T08:01:04;9.10;86.40
5226;DHT22;2632;51.666;7.146;2024-03-17T08:03:32;9.20;85.30
5226;DHT22;2632;51.666;7.146;2024-03-17T08:05:58;9.20;85.30
5226;DHT22;2632;51.666;7.146;2024-03-17T08:08:24;9.30;85.40
5226;DHT22;2632;51.666;7.146;2024-03-17T08:10:50;9.30;84.60
5226;DHT22;2632;51.666;7.146;2024-03-17T08:13:17;9.20;83.90
5226;DHT22;2632;51.666;7.146;2024-03-17T08:15:44;9.30;84.30
5226;DHT22;2632;51.666;7.146;2024-03-17T08:18:11;9.50;83.90
5226;DHT22;2632;51.666;7.146;2024-03-17T08:20:41;9.70;82.70
5226;DHT22;2632;51.666;7.146;2024-03-17T08:23:12;9.70;81.80
5226;DHT22;2632;51.666;7.146;2024-03-17T08:25:39;10.00;82.20
5226;DHT22;2632;51.666;7.146;2024-03-17T08:28:05;10.20;80.70
5226;DHT22;2632;51.666;7.146;2024-03-17T08:30:33;11.00;79.30
5226;DHT22;2632;51.666;7.146;2024-03-17T08:32:59;12.30;75.60
5226;DHT22;2632;51.666;7.146;2024-03-17T08:35:25;12.20;74.60
5226;DHT22;2632;51.666;7.146;2024-03-17T08:37:50;11.80;75.70
5226;DHT22;2632;51.666;7.146;2024-03-17T08:40:17;11.30;77.00
5226;DHT22;2632;51.666;7.146;2024-03-17T08:42:43;11.10;77.90
5226;DHT22;2632;51.666;7.146;2024-03-17T08:45:11;11.10;78.90
5226;DHT22;2632;51.666;7.146;2024-03-17T08:47:37;11.10;79.40
5226;DHT22;2632;51.666;7.146;2024-03-17T08:50:03;11.20;77.40
5226;DHT22;2632;51.666;7.146;2024-03-17T08:52:33;11.30;77.00
5226;DHT22;2632;51.666;7.146;2024-03-17T08:54:59;11.90;75.60
5226;DHT22;2632;51.666;7.146;2024-03-17T08:57:25;12.50;74.30
5226;DHT22;2632;51.666;7.146;2024-03-17T08:59:51;12.40;74.20
5226;DHT22;2632;51.666;7.146;2024-03-17T09:02:20;12.70;74.60
5226;DHT22;2632;51.666;7.146;2024-03-17T09:04:47;13.00;72.40
5226;DHT22;2632;51.666;7.146;2024-03-17T09:07:13;13.40;71.40
5226;DHT22;2632;51.666;7.146;2024-03-17T09:09:41;13.90;71.00
5226;DHT22;2632;51.666;7.146;2024-03-17T09:12:08;14.10;68.80
5226;DHT22;2632;51.666;7.146;2024-03-17T09:14:33;14.30;69.50
5226;DHT22;2632;51.666;7.146;2024-03-17T09:16:59;15.70;65.20
5226;DHT22;2632;51.666;7.146;2024-03-17T09:19:25;16.60;62.20
5226;DHT22;2632;51.666;7.146;2024-03-17T09:21:51;15.90;62.80
5226;DHT22;2632;51.666;7.146;2024-03-17T09:24:16;15.50;64.00
5226;DHT22;2632;51.666;7.146;2024-03-17T09:26:42;15.10;64.40
5226;DHT22;2632;51.666;7.146;2024-03-17T09:29:08;15.40;62.50
5226;DHT22;2632;51.666;7.146;2024-03-17T09:31:33;15.20;64.10
5226;DHT22;2632;51.666;7.146;2024-03-17T09:34:03;15.00;64.80
5226;DHT22;2632;51.666;7.146;2024-03-17T09:36:30;14.80;64.90
5226;DHT22;2632;51.666;7.146;2024-03-17T09:38:56;15.30;63.50
5226;DHT22;2632;51.666;7.146;2024-03-17T09:41:23;16.70;62.60
5226;DHT22;2632;51.666;7.146;2024-03-17T09:43:55;16.40;60.60
5226;DHT22;2632;51.666;7.146;2024-03-17T09:46:23;17.10;63.70
5226;DHT22;2632;51.666;7.146;2024-03-17T09:48:49;17.10;60.30
5226;DHT22;2632;51.666;7.146;2024-03-17T09:51:19;17.50;61.10
5226;DHT22;2632;51.666;7.146;2024-03-17T09:53:46;17.20;59.90
5226;DHT22;2632;51.666;7.146;2024-03-17T09:56:14;17.70;59.00
5226;DHT22;2632;51.666;7.146;2024-03-17T09:58:42;18.10;58.60
5226;DHT22;2632;51.666;7.146;2024-03-17T10:01:08;16.80;58.80
5226;DHT22;2632;51.666;7.146;2024-03-17T10:03:44;15.80;63.30
5226;DHT22;2632;51.666;7.146;2024-03-17T10:06:25;15.50;64.90
5226;DHT22;2632;51.666;7.146;2024-03-17T10:08:59;15.50;66.20
5226;DHT22;2632;51.666;7.146;2024-03-17T10:11:34;15.30;64.00
5226;DHT22;2632;51.666;7.146;2024-03-17T10:16:30;15.20;66.30
5226;DHT22;2632;51.666;7.146;2024-03-17T10:21:36;15.30;64.80
5226;DHT22;2632;51.666;7.146;2024-03-17T10:24:10;15.50;64.40
5226;DHT22;2632;51.666;7.146;2024-03-17T10:26:40;15.40;65.70
5226;DHT22;2632;51.666;7.146;2024-03-17T10:31:57;15.30;65.70
5226;DHT22;2632;51.666;7.146;2024-03-17T10:34:25;15.50;64.50
5226;DHT22;2632;51.666;7.146;2024-03-17T10:36:52;15.50;65.20
5226;DHT22;2632;51.666;7.146;2024-03-17T10:39:30;15.40;64.00
5226;DHT22;2632;51.666;7.146;2024-03-17T10:42:06;15.30;63.70
5226;DHT22;2632;51.666;7.146;2024-03-17T10:44:35;15.20;64.70
5226;DHT22;2632;51.666;7.146;2024-03-17T10:47:03;15.20;63.10
5226;DHT22;2632;51.666;7.146;2024-03-17T10:49:36;14.90;64.60
5226;DHT22;2632;51.666;7.146;2024-03-17T10:52:06;14.90;66.30
5226;DHT22;2632;51.666;7.146;2024-03-17T10:54:33;14.60;65.50
5226;DHT22;2632;51.666;7.146;2024-03-17T10:59:41;14.30;65.60
5226;DHT22;2632;51.666;7.146;2024-03-17T11:02:21;14.30;65.70
5226;DHT22;2632;51.666;7.146;2024-03-17T11:04:59;14.20;66.20
5226;DHT22;2632;51.666;7.146;2024-03-17T11:07:26;14.30;66.30
5226;DHT22;2632;51.666;7.146;2024-03-17T11:09:55;14.60;66.40
5226;DHT22;2632;51.666;7.146;2024-03-17T11:12:45;14.80;65.70
5226;DHT22;2632;51.666;7.146;2024-03-17T11:20:39;15.00;63.60
5226;DHT22;2632;51.666;7.146;2024-03-17T11:23:05;15.10;65.40
5226;DHT22;2632;51.666;7.146;2024-03-17T11:28:07;15.30;62.60
5226;DHT22;2632;51.666;7.146;2024-03-17T11:30:49;15.90;63.20
5226;DHT22;2632;51.666;7.146;2024-03-17T11:41:38;15.70;62.00
5226;DHT22;2632;51.666;7.146;2024-03-17T11:44:15;15.50;62.30
5226;DHT22;2632;51.666;7.146;2024-03-17T11:46:45;15.10;61.90
5226;DHT22;2632;51.666;7.146;2024-03-17T11:51:48;14.90;63.10
5226;DHT22;2632;51.666;7.146;2024-03-17T11:54:16;14.90;64.60
5226;DHT22;2632;51.666;7.146;2024-03-17T11:56:54;14.70;63.80
5226;DHT22;2632;51.666;7.146;2024-03-17T11:59:21;14.50;64.20
5226;DHT22;2632;51.666;7.146;2024-03-17T12:01:51;14.40;64.80
5226;DHT22;2632;51.666;7.146;2024-03-17T12:04:18;14.50;64.30
5226;DHT22;2632;51.666;7.146;2024-03-17T12:06:50;14.50;64.30
5226;DHT22;2632;51.666;7.146;2024-03-17T12:12:04;14.60;64.50
5226;DHT22;2632;51.666;7.146;2024-03-17T12:14:30;14.40;63.80
5226;DHT22;2632;51.666;7.146;2024-03-17T12:16:58;14.60;65.00
5226;DHT22;2632;51.666;7.146;2024-03-17T12:19:25;14.40;64.20
5226;DHT22;2632;51.666;7.146;2024-03-17T12:21:52;14.40;64.20
5226;DHT22;2632;51.666;7.146;2024-03-17T12:24:28;14.50;63.70
5226;DHT22;2632;51.666;7.146;2024-03-17T12:26:56;14.60;63.80
5226;DHT22;2632;51.666;7.146;2024-03-17T12:29:25;14.60;64.90
5226;DHT22;2632;51.666;7.146;2024-03-17T12:31:54;14.70;65.40
5226;DHT22;2632;51.666;7.146;2024-03-17T12:34:21;14.80;65.80
5226;DHT22;2632;51.666;7.146;2024-03-17T12:36:48;14.80;64.80
5226;DHT22;2632;51.666;7.146;2024-03-17T12:39:34;15.10;65.10
5226;DHT22;2632;51.666;7.146;2024-03-17T12:44:32;15.70;64.50
5226;DHT22;2632;51.666;7.146;2024-03-17T12:47:00;15.60;61.40
5226;DHT22;2632;51.666;7.146;2024-03-17T12:49:27;15.30;62.70
5226;DHT22;2632;51.666;7.146;2024-03-17T12:51:53;15.30;63.10
5226;DHT22;2632;51.666;7.146;2024-03-17T12:54:21;15.50;63.50
5226;DHT22;2632;51.666;7.146;2024-03-17T12:56:47;15.50;63.60
5226;DHT22;2632;51.666;7.146;2024-03-17T12:59:42;15.50;62.30
5226;DHT22;2632;51.666;7.146;2024-03-17T13:02:26;15.50;63.50
5226;DHT22;2632;51.666;7.146;2024-03-17T13:05:19;15.50;62.80
5226;DHT22;2632;51.666;7.146;2024-03-17T13:07:46;15.30;62.10
5226;DHT22;2632;51.666;7.146;2024-03-17T13:10:16;15.30;62.70
5226;DHT22;2632;51.666;7.146;2024-03-17T13:12:43;15.60;64.00
5226;DHT22;2632;51.666;7.146;2024-03-17T13:15:12;15.90;62.60
5226;DHT22;2632;51.666;7.146;2024-03-17T13:17:38;15.80;61.10
5226;DHT22;2632;51.666;7.146;2024-03-17T13:20:04;15.80;60.30
5226;DHT22;2632;51.666;7.146;2024-03-17T13:22:34;16.00;61.60
5226;DHT22;2632;51.666;7.146;2024-03-17T13:25:01;15.70;61.50
5226;DHT22;2632;51.666;7.146;2024-03-17T13:27:27;15.80;62.80
5226;DHT22;2632;51.666;7.146;2024-03-17T13:29:52;15.90;62.00
5226;DHT22;2632;51.666;7.146;2024-03-17T13:32:19;16.20;62.20
5226;DHT22;2632;51.666;7.146;2024-03-17T13:34:45;16.50;60.90
5226;DHT22;2632;51.666;7.146;2024-03-17T13:37:11;16.30;60.30
5226;DHT22;2632;51.666;7.146;2024-03-17T13:39:37;16.30;60.80
5226;DHT22;2632;51.666;7.146;2024-03-17T13:42:02;16.20;60.10
5226;DHT22;2632;51.666;7.146;2024-03-17T13:44:29;16.20;63.00
5226;DHT22;2632;51.666;7.146;2024-03-17T13:46:57;16.20;60.50
5226;DHT22;2632;51.666;7.146;2024-03-17T13:49:23;16.00;60.90
5226;DHT22;2632;51.666;7.146;2024-03-17T13:51:49;16.00;60.80
5226;DHT22;2632;51.666;7.146;2024-03-17T13:54:15;16.00;60.70
5226;DHT22;2632;51.666;7.146;2024-03-17T13:56:41;16.00;61.00
5226;DHT22;2632;51.666;7.146;2024-03-17T13:59:07;16.10;61.60
5226;DHT22;2632;51.666;7.146;2024-03-17T14:01:33;15.90;61.10
5226;DHT22;2632;51.666;7.146;2024-03-17T14:03:58;15.70;61.10
5226;DHT22;2632;51.666;7.146;2024-03-17T14:06:24;15.60;61.70
5226;DHT22;2632;51.666;7.146;2024-03-17T14:08:50;15.30;60.30
5226;DHT22;2632;51.666;7.146;2024-03-17T14:11:16;15.20;61.20
5226;DHT22;2632;51.666;7.146;2024-03-17T14:13:42;15.10;62.60
5226;DHT22;2632;51.666;7.146;2024-03-17T14:16:07;15.10;62.60
5226;DHT22;2632;51.666;7.146;2024-03-17T14:18:33;15.20;62.00
5226;DHT22;2632;51.666;7.146;2024-03-17T14:20:59;15.10;61.50
5226;DHT22;2632;51.666;7.146;2024-03-17T14:23:24;15.10;62.30
5226;DHT22;2632;51.666;7.146;2024-03-17T14:25:50;15.10;62.40
5226;DHT22;2632;51.666;7.146;2024-03-17T14:28:16;14.90;61.50
5226;DHT22;2632;51.666;7.146;2024-03-17T14:30:42;14.90;61.40
5226;DHT22;2632;51.666;7.146;2024-03-17T14:33:08;14.90;62.50
5226;DHT22;2632;51.666;7.146;2024-03-17T14:35:33;14.70;62.60
5226;DHT22;2632;51.666;7.146;2024-03-17T14:37:59;14.80;62.70
5226;DHT22;2632;51.666;7.146;2024-03-17T14:40:26;14.70;63.00
5226;DHT22;2632;51.666;7.146;2024-03-17T14:42:54;14.70;61.20
5226;DHT22;2632;51.666;7.146;2024-03-17T14:45:21;14.60;62.10
5226;DHT22;2632;51.666;7.146;2024-03-17T14:47:50;14.70;62.70
5226;DHT22;2632;51.666;7.146;2024-03-17T14:50:17;14.70;62.80
5226;DHT22;2632;51.666;7.146;2024-03-17T14:52:44;14.60;62.90
5226;DHT22;2632;51.666;7.146;2024-03-17T14:55:10;14.50;62.20
5226;DHT22;2632;51.666;7.146;2024-03-17T14:57:40;14.60;63.00
5226;DHT22;2632;51.666;7.146;2024-03-17T15:00:13;14.60;62.10
5226;DHT22;2632;51.666;7.146;2024-03-17T15:02:46;14.60;62.60
5226;DHT22;2632;51.666;7.146;2024-03-17T15:05:13;14.70;63.00
5226;DHT22;2632;51.666;7.146;2024-03-17T15:07:47;14.60;63.10
5226;DHT22;2632;51.666;7.146;2024-03-17T15:10:14;14.60;62.90
5226;DHT22;2632;51.666;7.146;2024-03-17T15:12:49;14.50;63.00
5226;DHT22;2632;51.666;7.146;2024-03-17T15:15:16;14.50;62.70
5226;DHT22;2632;51.666;7.146;2024-03-17T15:17:42;14.50;63.10
5226;DHT22;2632;51.666;7.146;2024-03-17T15:20:12;14.50;62.90
5226;DHT22;2632;51.666;7.146;2024-03-17T15:22:50;14.50;63.40
5226;DHT22;2632;51.666;7.146;2024-03-17T15:25:16;14.50;62.90
5226;DHT22;2632;51.666;7.146;2024-03-17T15:27:45;14.50;62.40
5226;DHT22;2632;51.666;7.146;2024-03-17T15:30:12;11.30;60.80
5226;DHT22;2632;51.666;7.146;2024-03-17T15:32:43;14.50;62.10
5226;DHT22;2632;51.666;7.146;2024-03-17T15:35:10;14.40;62.60
5226;DHT22;2632;51.666;7.146;2024-03-17T15:37:39;14.40;62.80
5226;DHT22;2632;51.666;7.146;2024-03-17T15:40:06;14.30;63.50
5226;DHT22;2632;51.666;7.146;2024-03-17T15:42:32;14.30;63.30
5226;DHT22;2632;51.666;7.146;2024-03-17T15:44:59;14.30;64.90
5226;DHT22;2632;51.666;7.146;2024-03-17T15:47:25;14.30;64.20
5226;DHT22;2632;51.666;7.146;2024-03-17T15:49:51;14.20;63.90
5226;DHT22;2632;51.666;7.146;2024-03-17T15:52:16;14.30;64.60
5226;DHT22;2632;51.666;7.146;2024-03-17T15:54:42;14.20;63.50
5226;DHT22;2632;51.666;7.146;2024-03-17T15:57:10;14.20;64.20
5226;DHT22;2632;51.666;7.146;2024-03-17T15:59:36;14.10;64.40
5226;DHT22;2632;51.666;7.146;2024-03-17T16:02:01;14.10;64.70
5226;DHT22;2632;51.666;7.146;2024-03-17T16:04:29;14.10;64.10
5226;DHT22;2632;51.666;7.146;2024-03-17T16:06:54;14.10;64.40
5226;DHT22;2632;51.666;7.146;2024-03-17T16:09:21;14.20;64.20
5226;DHT22;2632;51.666;7.146;2024-03-17T16:11:46;14.20;64.90
5226;DHT22;2632;51.666;7.146;2024-03-17T16:14:13;14.30;65.00
5226;DHT22;2632;51.666;7.146;2024-03-17T16:16:40;14.40;64.30
5226;DHT22;2632;51.666;7.146;2024-03-17T16:19:06;14.50;64.90
5226;DHT22;2632;51.666;7.146;2024-03-17T16:21:36;14.50;66.10
5226;DHT22;2632;51.666;7.146;2024-03-17T16:24:06;14.50;66.60
5226;DHT22;2632;51.666;7.146;2024-03-17T16:26:34;14.50;66.30
5226;DHT22;2632;51.666;7.146;2024-03-17T16:29:03;14.50;65.90
5226;DHT22;2632;51.666;7.146;2024-03-17T16:31:33;14.50;66.60
5226;DHT22;2632;51.666;7.146;2024-03-17T16:33:59;14.40;66.80
5226;DHT22;2632;51.666;7.146;2024-03-17T16:36:29;14.30;66.80
5226;DHT22;2632;51.666;7.146;2024-03-17T16:38:55;14.30;66.90
5226;DHT22;2632;51.666;7.146;2024-03-17T16:41:21;14.20;67.40
5226;DHT22;2632;51.666;7.146;2024-03-17T16:49:15;14.10;67.90
5226;DHT22;2632;51.666;7.146;2024-03-17T16:51:41;14.00;67.90
5226;DHT22;2632;51.666;7.146;2024-03-17T16:54:07;14.00;68.30